Time;durP1;ratioP1;P1;durP2;ratioP2;P2;SDS_P1;SDS_P2;PMS_P1;PMS_P2;Temp;Humidity;BMP_temperature;BMP_pressure;BME280_temperature;BME280_humidity;BME280_pressure;Samples;Min_cycle;Max_cycle;Signal;HPM_P1;HPM_P2
2023/10/30 00:00:08;;;;;;;4.78;1.58;;;10.80;99.90;;;;;;4872484;29;20028;-80
2023/10/30 00:02:37;;;;;;;5.90;1.48;;;10.70;99.90;;;;;;4889073;29;20341;-80
2023/10/30 00:05:04;;;;;;;4.20;1.48;;;10.70;99.90;;;;;;4873491;29;20065;-80
2023/10/30 00:07:30;;;;;;;2.28;1.08;;;10.70;99.90;;;;;;4870120;29;20186;-80
2023/10/30 00:09:55;;;;;;;7.95;1.75;;;10.70;99.90;;;;;;4887760;29;20407;-80
2023/10/30 00:12:21;;;;;;;5.25;1.55;;;10.60;99.90;;;;;;4870799;29;20112;-80
2023/10/30 00:14:47;;;;;;;5.38;1.35;;;10.60;99.90;;;;;;4859397;29;20032;-80
2023/10/30 00:17:13;;;;;;;6.25;1.58;;;10.60;99.90;;;;;;4874732;29;20286;-80
2023/10/30 00:19:39;;;;;;;3.42;1.38;;;10.60;99.90;;;;;;4865151;29;20059;-80
2023/10/30 00:22:05;;;;;;;4.95;1.42;;;10.60;99.90;;;;;;4904895;29;20031;-80
2023/10/30 00:24:32;;;;;;;5.45;1.45;;;10.60;99.90;;;;;;4865166;29;20451;-80
2023/10/30 00:26:58;;;;;;;3.83;1.33;;;10.60;99.90;;;;;;4871905;29;20056;-80
2023/10/30 00:29:24;;;;;;;5.78;1.50;;;10.50;99.90;;;;;;4894719;29;20044;-80
2023/10/30 00:31:50;;;;;;;4.47;1.35;;;10.50;99.90;;;;;;4871610;29;20064;-80
2023/10/30 00:34:16;;;;;;;5.07;1.58;;;10.50;99.90;;;;;;4868433;29;20290;-80
2023/10/30 00:36:41;;;;;;;7.35;1.50;;;10.50;99.90;;;;;;4855163;29;20093;-80
2023/10/30 00:39:07;;;;;;;4.28;1.40;;;10.50;99.90;;;;;;4868382;29;20112;-80
2023/10/30 00:41:33;;;;;;;5.57;1.50;;;10.50;99.90;;;;;;4855701;29;20108;-80
2023/10/30 00:43:59;;;;;;;4.22;1.30;;;10.50;99.90;;;;;;4869952;29;20043;-80
2023/10/30 00:46:25;;;;;;;3.05;1.05;;;10.50;99.90;;;;;;4853107;29;20058;-81
2023/10/30 00:48:50;;;;;;;4.32;1.33;;;10.50;99.90;;;;;;4869988;29;20036;-80
2023/10/30 00:51:16;;;;;;;4.63;1.17;;;10.40;99.90;;;;;;4869348;29;20044;-80
2023/10/30 00:53:42;;;;;;;5.53;1.80;;;10.40;99.90;;;;;;4869288;29;20021;-79
2023/10/30 00:56:08;;;;;;;5.18;1.42;;;10.30;99.90;;;;;;4851261;29;20043;-80
2023/10/30 00:58:34;;;;;;;4.68;1.40;;;10.30;99.90;;;;;;4858140;29;20109;-79
2023/10/30 01:01:01;;;;;;;3.97;1.23;;;10.30;99.90;;;;;;4853392;29;21571;-80
2023/10/30 01:03:27;;;;;;;4.78;1.20;;;10.30;99.90;;;;;;4868481;29;20156;-80
2023/10/30 01:05:57;;;;;;;5.85;1.33;;;10.30;99.90;;;;;;4868465;29;20062;-80
2023/10/30 01:08:23;;;;;;;2.33;1.40;;;10.30;99.90;;;;;;4854005;29;20059;-80
2023/10/30 01:10:48;;;;;;;2.72;1.10;;;10.20;99.90;;;;;;4854099;29;20376;-80
2023/10/30 01:13:14;;;;;;;3.22;1.15;;;10.20;99.90;;;;;;4865665;29;20026;-79
2023/10/30 01:15:40;;;;;;;3.63;1.30;;;10.20;99.90;;;;;;4866868;29;20278;-80
2023/10/30 01:18:05;;;;;;;2.88;1.13;;;10.10;99.90;;;;;;4852118;29;20034;-80
2023/10/30 01:20:32;;;;;;;6.10;1.30;;;10.10;99.90;;;;;;4868998;29;20048;-80
2023/10/30 01:22:58;;;;;;;6.03;2.05;;;10.10;99.90;;;;;;4854133;29;20072;-80
2023/10/30 01:25:23;;;;;;;5.63;1.50;;;10.10;99.90;;;;;;4867299;29;20064;-80
2023/10/30 01:27:49;;;;;;;4.60;1.38;;;10.10;99.90;;;;;;4868390;29;20061;-80
2023/10/30 01:30:15;;;;;;;4.18;1.42;;;10.10;99.90;;;;;;4870583;29;20088;-80
2023/10/30 01:32:40;;;;;;;5.13;1.58;;;10.10;99.90;;;;;;4876229;29;20036;-80
2023/10/30 01:35:06;;;;;;;4.00;1.27;;;10.10;99.90;;;;;;4864648;29;20035;-80
2023/10/30 01:37:32;;;;;;;3.72;1.13;;;10.10;99.90;;;;;;4880857;29;20033;-80
2023/10/30 01:39:58;;;;;;;5.10;1.50;;;10.10;99.90;;;;;;4880817;29;20294;-80
2023/10/30 01:42:24;;;;;;;3.90;1.30;;;10.10;99.90;;;;;;4878919;29;20136;-80
2023/10/30 01:44:54;;;;;;;4.93;1.40;;;10.10;99.90;;;;;;4894568;29;20083;-80
2023/10/30 01:47:20;;;;;;;3.95;1.27;;;10.10;99.90;;;;;;4880175;29;20029;-81
2023/10/30 01:49:46;;;;;;;4.30;1.40;;;10.10;99.90;;;;;;4881576;29;20044;-79
2023/10/30 01:52:13;;;;;;;6.28;1.40;;;10.10;99.90;;;;;;4864168;29;20036;-80
2023/10/30 01:54:39;;;;;;;4.75;1.48;;;10.10;99.90;;;;;;4881704;29;20059;-80
2023/10/30 01:57:05;;;;;;;2.80;1.17;;;10.00;99.90;;;;;;4862307;29;20076;-80
2023/10/30 01:59:31;;;;;;;5.15;1.38;;;10.00;99.90;;;;;;4885689;29;20037;-80
2023/10/30 02:01:57;;;;;;;6.95;1.60;;;10.00;99.90;;;;;;4884991;29;20119;-80
2023/10/30 02:04:25;;;;;;;6.07;1.60;;;10.00;99.90;;;;;;4879292;29;20036;-80
2023/10/30 02:06:50;;;;;;;5.30;1.77;;;10.00;99.90;;;;;;4876830;29;20076;-80
2023/10/30 02:09:16;;;;;;;6.50;1.80;;;10.00;99.90;;;;;;4865471;29;20214;-79
2023/10/30 02:11:42;;;;;;;4.70;1.40;;;10.00;99.90;;;;;;4878350;29;20154;-79
2023/10/30 02:14:07;;;;;;;4.40;1.48;;;10.00;99.90;;;;;;4879749;29;20064;-80
2023/10/30 02:16:33;;;;;;;4.38;1.38;;;9.90;99.90;;;;;;4893698;29;20041;-80
2023/10/30 02:18:59;;;;;;;6.18;1.60;;;9.90;99.90;;;;;;4881569;29;20040;-79
2023/10/30 02:21:24;;;;;;;6.13;1.70;;;9.90;99.90;;;;;;4877773;29;20020;-80
2023/10/30 02:23:50;;;;;;;8.30;2.30;;;9.90;99.90;;;;;;4882625;29;20044;-80
2023/10/30 02:26:16;;;;;;;3.42;1.30;;;9.90;99.90;;;;;;4829493;29;20119;-81
2023/10/30 02:28:42;;;;;;;4.97;1.65;;;9.90;99.90;;;;;;4879474;29;20045;-80
2023/10/30 02:31:07;;;;;;;5.13;1.70;;;9.90;99.90;;;;;;4881649;29;20119;-80
2023/10/30 02:33:33;;;;;;;4.55;1.70;;;9.90;99.90;;;;;;4864788;29;20055;-80
2023/10/30 02:35:59;;;;;;;6.18;1.80;;;9.90;99.90;;;;;;4861798;29;20032;-80
2023/10/30 02:38:24;;;;;;;5.80;2.03;;;9.90;99.90;;;;;;4866845;29;20029;-80
2023/10/30 02:40:50;;;;;;;3.83;1.73;;;9.90;99.90;;;;;;4886810;29;20032;-80
2023/10/30 02:43:18;;;;;;;6.35;1.55;;;9.90;99.90;;;;;;4859871;29;20128;-80
2023/10/30 02:45:44;;;;;;;3.88;1.40;;;9.90;99.90;;;;;;4869786;29;20039;-80
2023/10/30 02:48:09;;;;;;;6.43;1.70;;;9.90;99.90;;;;;;4872362;29;20054;-80
2023/10/30 02:50:35;;;;;;;7.10;1.50;;;9.90;99.90;;;;;;4900698;29;20043;-80
2023/10/30 02:53:01;;;;;;;8.45;1.98;;;9.90;99.90;;;;;;4886441;29;20029;-80
2023/10/30 02:55:26;;;;;;;5.60;1.60;;;9.90;99.90;;;;;;4877131;29;20040;-80
2023/10/30 02:57:52;;;;;;;6.57;1.90;;;9.90;99.90;;;;;;4884783;29;20308;-80
2023/10/30 03:00:18;;;;;;;5.95;1.70;;;9.90;99.90;;;;;;4901395;29;20041;-80
2023/10/30 03:02:43;;;;;;;4.70;1.67;;;9.90;99.90;;;;;;4861148;29;20051;-80
2023/10/30 03:05:09;;;;;;;7.40;1.80;;;9.90;99.90;;;;;;4865780;29;20269;-80
2023/10/30 03:07:35;;;;;;;5.97;1.77;;;9.90;99.90;;;;;;4882597;29;20067;-80
2023/10/30 03:10:01;;;;;;;4.70;1.50;;;10.00;99.90;;;;;;4884236;29;20056;-80
2023/10/30 03:12:26;;;;;;;6.50;1.90;;;10.00;99.90;;;;;;4876811;29;20057;-80
2023/10/30 03:14:53;;;;;;;8.27;1.70;;;10.00;99.90;;;;;;4867148;29;20071;-80
2023/10/30 03:17:18;;;;;;;7.05;1.83;;;10.00;99.90;;;;;;4885302;29;20040;-80
2023/10/30 03:19:44;;;;;;;6.75;1.90;;;10.00;99.90;;;;;;4884271;29;20044;-80
2023/10/30 03:22:10;;;;;;;4.35;1.40;;;10.00;99.90;;;;;;4870168;29;20052;-80
2023/10/30 03:24:35;;;;;;;5.75;1.90;;;10.10;99.90;;;;;;4886618;29;20060;-80
2023/10/30 03:27:01;;;;;;;7.15;1.88;;;10.10;99.90;;;;;;4872983;29;20109;-80
2023/10/30 03:29:27;;;;;;;6.13;1.80;;;10.10;99.90;;;;;;4905000;29;20096;-81
2023/10/30 03:31:54;;;;;;;8.55;1.90;;;10.10;99.90;;;;;;4874092;29;20070;-80
2023/10/30 03:34:20;;;;;;;5.90;1.70;;;10.10;99.90;;;;;;4890702;29;20294;-80
2023/10/30 03:36:46;;;;;;;5.60;1.63;;;10.10;99.90;;;;;;4885785;29;20045;-80
2023/10/30 03:39:12;;;;;;;9.05;1.95;;;10.10;99.90;;;;;;4887314;29;20337;-80
2023/10/30 03:41:38;;;;;;;6.45;1.75;;;10.10;99.90;;;;;;4874556;29;20096;-80
2023/10/30 03:44:04;;;;;;;4.32;1.45;;;10.10;99.90;;;;;;4890654;29;20088;-80
2023/10/30 03:46:29;;;;;;;4.30;1.48;;;10.10;99.90;;;;;;4870475;29;20043;-80
2023/10/30 03:48:55;;;;;;;5.22;1.50;;;10.10;99.90;;;;;;4877452;29;20156;-81
2023/10/30 03:51:21;;;;;;;7.47;1.60;;;10.00;99.90;;;;;;4875339;29;20052;-80
2023/10/30 03:53:47;;;;;;;6.55;1.75;;;10.00;99.90;;;;;;4902243;29;20028;-80
2023/10/30 03:56:12;;;;;;;6.78;2.15;;;10.00;99.90;;;;;;4875489;29;20063;-80
2023/10/30 03:58:38;;;;;;;9.27;2.22;;;10.00;99.90;;;;;;4875539;29;20391;-80
2023/10/30 04:01:06;;;;;;;6.38;1.67;;;10.00;99.90;;;;;;4857172;29;20037;-80
2023/10/30 04:03:31;;;;;;;7.50;2.20;;;10.00;99.90;;;;;;4873879;29;20032;-80
2023/10/30 04:06:03;;;;;;;6.38;1.60;;;9.90;99.90;;;;;;4882516;29;20062;-80
2023/10/30 04:08:30;;;;;;;6.40;1.83;;;8.70;99.90;;;;;;4905647;29;20117;-80
2023/10/30 04:10:56;;;;;;;5.88;1.50;;;9.90;99.90;;;;;;4868892;29;20326;-80
2023/10/30 04:13:22;;;;;;;6.93;1.92;;;9.90;99.90;;;;;;4866827;29;20044;-80
2023/10/30 04:15:47;;;;;;;8.73;2.15;;;9.90;99.90;;;;;;4854732;29;20086;-80
2023/10/30 04:18:13;;;;;;;8.52;2.40;;;9.90;99.90;;;;;;4904977;29;20052;-80
2023/10/30 04:20:39;;;;;;;7.38;1.70;;;9.90;99.90;;;;;;4869785;29;20076;-80
2023/10/30 04:23:04;;;;;;;6.10;2.00;;;9.90;99.90;;;;;;4871942;29;20073;-80
2023/10/30 04:25:30;;;;;;;6.57;1.88;;;9.90;99.90;;;;;;4879133;29;20199;-79
2023/10/30 04:27:56;;;;;;;7.75;1.90;;;9.90;99.90;;;;;;4882906;29;20044;-80
2023/10/30 04:30:21;;;;;;;6.95;2.20;;;9.90;99.90;;;;;;4897561;29;20038;-80
2023/10/30 04:32:47;;;;;;;7.68;2.10;;;9.90;99.90;;;;;;4888844;29;20060;-80
2023/10/30 04:35:13;;;;;;;7.05;1.80;;;9.90;99.90;;;;;;4872376;29;20033;-80
2023/10/30 04:37:39;;;;;;;6.28;1.73;;;9.90;99.90;;;;;;4887226;29;20044;-80
2023/10/30 04:40:05;;;;;;;8.98;2.25;;;9.90;99.90;;;;;;4870139;29;20060;-80
2023/10/30 04:42:31;;;;;;;7.18;1.98;;;9.90;99.90;;;;;;4885787;29;20032;-80
2023/10/30 04:44:56;;;;;;;6.95;1.92;;;9.90;99.90;;;;;;4873991;29;20949;-79
2023/10/30 04:47:22;;;;;;;6.95;1.65;;;9.90;99.90;;;;;;4871795;29;20035;-80
2023/10/30 04:49:50;;;;;;;6.97;2.00;;;9.90;99.90;;;;;;4865458;29;20047;-80
2023/10/30 04:52:15;;;;;;;4.95;1.60;;;9.90;99.90;;;;;;4884753;29;20032;-80
2023/10/30 04:54:41;;;;;;;7.60;2.00;;;9.90;99.90;;;;;;4884421;29;20324;-80
2023/10/30 04:57:07;;;;;;;8.00;2.08;;;9.90;99.90;;;;;;4887983;29;20044;-80
2023/10/30 04:59:33;;;;;;;6.88;2.22;;;9.90;99.90;;;;;;4903173;29;20115;-80
2023/10/30 05:02:01;;;;;;;6.65;1.90;;;9.90;99.90;;;;;;4904172;29;20041;-81
2023/10/30 05:04:27;;;;;;;5.32;1.77;;;9.90;99.90;;;;;;4857004;29;20355;-80
2023/10/30 05:06:53;;;;;;;6.93;1.90;;;9.90;99.90;;;;;;4872576;29;20080;-81
2023/10/30 05:09:18;;;;;;;6.82;1.83;;;9.90;99.90;;;;;;4904273;29;20037;-81
2023/10/30 05:11:44;;;;;;;5.85;1.80;;;9.90;99.90;;;;;;4888042;29;20020;-80
2023/10/30 05:14:10;;;;;;;6.10;1.85;;;9.90;99.90;;;;;;4872217;29;20084;-80
2023/10/30 05:16:36;;;;;;;5.40;1.60;;;9.80;99.90;;;;;;4900007;29;20335;-80
2023/10/30 05:19:01;;;;;;;7.78;1.80;;;9.80;99.90;;;;;;4886899;29;20396;-80
2023/10/30 05:21:27;;;;;;;5.47;1.83;;;9.80;99.90;;;;;;4887298;29;20283;-80
2023/10/30 05:23:53;;;;;;;6.40;1.83;;;9.80;99.90;;;;;;4842250;29;20100;-81
2023/10/30 05:26:18;;;;;;;6.55;1.80;;;9.80;99.90;;;;;;4870557;29;20044;-80
2023/10/30 05:28:44;;;;;;;6.18;1.60;;;9.80;99.90;;;;;;4886105;29;20032;-81
2023/10/30 05:31:10;;;;;;;7.78;2.30;;;9.80;99.90;;;;;;4867486;29;20048;-81
2023/10/30 05:33:35;;;;;;;8.38;1.90;;;9.80;99.90;;;;;;4888530;29;20040;-80
2023/10/30 05:36:03;;;;;;;7.03;1.88;;;9.80;99.90;;;;;;4903780;29;20425;-80
2023/10/30 05:38:29;;;;;;;5.25;1.70;;;9.80;99.90;;;;;;4887667;29;20048;-80
2023/10/30 05:40:55;;;;;;;6.80;2.00;;;9.80;99.90;;;;;;4880001;29;20167;-80
2023/10/30 05:43:21;;;;;;;8.75;1.92;;;9.80;99.90;;;;;;4895868;29;20103;-81
2023/10/30 05:45:47;;;;;;;7.93;2.10;;;9.70;99.90;;;;;;4871590;29;20048;-80
2023/10/30 05:48:14;;;;;;;6.53;1.70;;;9.80;99.90;;;;;;4886013;29;20242;-81
2023/10/30 05:50:40;;;;;;;8.13;1.90;;;9.70;99.90;;;;;;4865101;29;20367;-81
2023/10/30 05:53:05;;;;;;;7.47;1.88;;;9.70;99.90;;;;;;4853211;29;20041;-81
2023/10/30 05:55:31;;;;;;;7.45;2.10;;;9.70;99.90;;;;;;4898820;29;20104;-82
2023/10/30 05:57:57;;;;;;;8.88;1.98;;;9.60;99.90;;;;;;4899805;29;20052;-81
2023/10/30 06:00:23;;;;;;;6.55;1.65;;;9.60;99.90;;;;;;4850459;29;20049;-81
2023/10/30 06:02:49;;;;;;;6.70;2.00;;;;;;;;;;4886658;29;20072;-81
2023/10/30 06:05:16;;;;;;;7.63;2.13;;;9.60;99.90;;;;;;4886703;29;20334;-81
2023/10/30 06:07:42;;;;;;;6.13;1.85;;;9.60;99.90;;;;;;4887155;29;20305;-80
2023/10/30 06:10:10;;;;;;;8.50;2.08;;;9.60;99.90;;;;;;4873456;29;20032;-80
2023/10/30 06:12:38;;;;;;;10.90;2.70;;;9.60;99.90;;;;;;4888326;29;20055;-80
2023/10/30 06:15:04;;;;;;;10.18;2.35;;;9.60;99.90;;;;;;4870436;29;20450;-80
2023/10/30 06:17:30;;;;;;;7.82;2.20;;;9.50;99.90;;;;;;4882842;29;20025;-81
2023/10/30 06:19:56;;;;;;;8.57;2.63;;;9.50;99.90;;;;;;4884120;29;20179;-81
2023/10/30 06:22:21;;;;;;;8.55;1.98;;;9.50;99.90;;;;;;4854817;29;20041;-81
2023/10/30 06:24:47;;;;;;;8.13;1.77;;;9.50;99.90;;;;;;4884510;29;20040;-80
2023/10/30 06:27:13;;;;;;;11.00;2.30;;;9.50;99.90;;;;;;4883912;29;20051;-80
2023/10/30 06:29:39;;;;;;;8.82;2.08;;;9.60;99.90;;;;;;4889660;29;20250;-81
2023/10/30 06:32:06;;;;;;;9.00;2.13;;;9.60;99.90;;;;;;4883138;29;20051;-80
2023/10/30 06:34:34;;;;;;;9.48;2.40;;;9.50;99.90;;;;;;4854031;29;20048;-81
2023/10/30 06:36:59;;;;;;;7.53;1.90;;;9.50;99.90;;;;;;4874346;29;20202;-80
2023/10/30 06:39:25;;;;;;;9.23;1.95;;;9.50;99.90;;;;;;4890139;29;20040;-81
2023/10/30 06:41:54;;;;;;;6.88;1.77;;;9.60;99.90;;;;;;4890440;29;20282;-80
2023/10/30 06:44:21;;;;;;;7.18;1.80;;;9.60;99.90;;;;;;4890509;29;20092;-81
2023/10/30 06:46:50;;;;;;;7.60;2.00;;;9.60;99.90;;;;;;4889843;29;20032;-80
2023/10/30 06:49:20;;;;;;;7.90;1.90;;;9.60;99.90;;;;;;4889942;29;20040;-81
2023/10/30 06:51:45;;;;;;;7.55;2.00;;;9.70;99.90;;;;;;4890279;29;20043;-80
2023/10/30 06:54:12;;;;;;;8.43;2.13;;;9.70;99.90;;;;;;4890453;29;20099;-81
2023/10/30 06:56:38;;;;;;;7.32;1.95;;;9.70;99.90;;;;;;4889668;29;20156;-81
2023/10/30 06:59:04;;;;;;;7.43;2.00;;;9.70;99.90;;;;;;4874774;29;20028;-80
2023/10/30 07:01:43;;;;;;;5.05;1.60;;;9.80;99.90;;;;;;4888742;29;20055;-80
2023/10/30 07:04:13;;;;;;;7.70;1.92;;;9.80;99.90;;;;;;4878906;29;20298;-81
2023/10/30 07:06:40;;;;;;;7.30;1.80;;;9.90;99.90;;;;;;4881924;29;20032;-81
2023/10/30 07:09:09;;;;;;;6.53;1.85;;;9.90;99.90;;;;;;4886429;29;20063;-81
2023/10/30 07:11:35;;;;;;;7.60;2.03;;;10.00;99.90;;;;;;4885035;29;20028;-81
2023/10/30 07:14:02;;;;;;;6.75;1.95;;;10.00;99.90;;;;;;4885502;29;20295;-80
2023/10/30 07:16:32;;;;;;;5.63;1.77;;;10.00;99.90;;;;;;4874094;29;20186;-81
2023/10/30 07:19:01;;;;;;;9.45;2.45;;;10.10;99.90;;;;;;4885941;29;20040;-81
2023/10/30 07:21:28;;;;;;;6.03;1.77;;;10.20;99.90;;;;;;4884065;29;20127;-82
2023/10/30 07:23:55;;;;;;;9.93;2.10;;;10.20;99.90;;;;;;4871171;29;20044;-80
2023/10/30 07:26:21;;;;;;;7.80;1.92;;;10.30;99.90;;;;;;4884130;29;20399;-80
2023/10/30 07:28:51;;;;;;;8.73;2.00;;;10.30;99.90;;;;;;4900552;29;20051;-81
2023/10/30 07:31:18;;;;;;;9.50;2.13;;;10.40;99.90;;;;;;4887376;29;20108;-81
2023/10/30 07:33:49;;;;;;;8.73;2.45;;;10.50;99.90;;;;;;4886385;29;20090;-81
2023/10/30 07:36:15;;;;;;;9.38;2.38;;;10.60;99.90;;;;;;4881333;29;20048;-81
2023/10/30 07:38:41;;;;;;;9.05;2.00;;;10.60;99.90;;;;;;4886041;29;20103;-81
2023/10/30 07:41:08;;;;;;;8.10;2.03;;;10.70;99.90;;;;;;4885737;29;20033;-81
2023/10/30 07:43:34;;;;;;;10.90;2.10;;;10.80;99.90;;;;;;4902625;29;20069;-80
2023/10/30 07:46:00;;;;;;;9.70;2.03;;;10.90;99.90;;;;;;4900976;29;20041;-80
2023/10/30 07:48:28;;;;;;;8.02;2.05;;;10.90;99.90;;;;;;4901248;29;20063;-80
2023/10/30 07:50:54;;;;;;;5.90;1.60;;;11.00;99.90;;;;;;4884670;29;21133;-80
2023/10/30 07:53:20;;;;;;;6.70;1.70;;;11.10;99.90;;;;;;4884955;29;20055;-80
2023/10/30 07:55:46;;;;;;;9.95;2.30;;;11.10;99.90;;;;;;4886274;29;20081;-80
2023/10/30 07:58:12;;;;;;;9.25;2.00;;;11.20;99.90;;;;;;4887290;29;20072;-81
2023/10/30 08:00:39;;;;;;;7.15;1.80;;;11.30;99.90;;;;;;4880175;29;21366;-81
2023/10/30 08:03:06;;;;;;;6.05;1.80;;;11.30;99.90;;;;;;4885275;29;20064;-80
2023/10/30 08:05:32;;;;;;;7.20;1.92;;;11.40;99.90;;;;;;4900983;29;20085;-80
2023/10/30 08:07:58;;;;;;;7.45;1.85;;;11.50;99.90;;;;;;4885583;29;20039;-80
2023/10/30 08:10:24;;;;;;;9.98;1.98;;;11.50;99.90;;;;;;4868993;29;20048;-81
2023/10/30 08:12:50;;;;;;;6.43;1.75;;;11.60;99.90;;;;;;4888879;29;20075;-80
2023/10/30 08:15:15;;;;;;;6.68;1.80;;;11.60;99.90;;;;;;4887951;29;20097;-80
2023/10/30 08:17:41;;;;;;;8.35;1.90;;;11.60;99.90;;;;;;4887580;29;20285;-81
2023/10/30 08:20:09;;;;;;;9.38;2.22;;;11.70;99.90;;;;;;4886491;29;20037;-80
2023/10/30 08:22:36;;;;;;;6.68;1.85;;;11.70;99.90;;;;;;4877461;29;20037;-80
2023/10/30 08:25:02;;;;;;;7.93;2.20;;;11.70;99.90;;;;;;4890310;29;20042;-80
2023/10/30 08:27:29;;;;;;;9.20;2.08;;;11.80;99.90;;;;;;4889645;29;20230;-81
2023/10/30 08:29:55;;;;;;;7.30;1.95;;;11.80;99.90;;;;;;4905987;29;20064;-80
2023/10/30 08:32:21;;;;;;;7.78;1.90;;;11.80;99.90;;;;;;4857961;29;20040;-81
2023/10/30 08:34:46;;;;;;;7.50;1.98;;;11.90;99.90;;;;;;4857818;29;20033;-80
2023/10/30 08:37:12;;;;;;;8.50;1.88;;;11.90;99.90;;;;;;4889466;29;20338;-81
2023/10/30 08:39:38;;;;;;;8.13;1.95;;;12.00;99.90;;;;;;4872148;29;20223;-81
2023/10/30 08:42:04;;;;;;;8.50;2.03;;;12.00;99.90;;;;;;4874179;29;20044;-80
2023/10/30 08:44:33;;;;;;;8.15;2.10;;;12.00;99.90;;;;;;4887741;29;20067;-80
2023/10/30 08:46:59;;;;;;;6.22;1.67;;;12.10;99.90;;;;;;4905770;29;20103;-80
2023/10/30 08:49:25;;;;;;;6.20;1.92;;;12.10;99.90;;;;;;4903361;29;20290;-80
2023/10/30 08:51:51;;;;;;;5.40;1.75;;;12.20;99.90;;;;;;4887937;29;20325;-81
2023/10/30 08:54:18;;;;;;;7.78;2.10;;;12.20;99.90;;;;;;4902208;29;20036;-81
2023/10/30 08:56:43;;;;;;;8.15;1.98;;;12.30;99.90;;;;;;4884958;29;20033;-80
2023/10/30 08:59:09;;;;;;;7.50;1.67;;;12.20;99.90;;;;;;4884267;29;20134;-80
2023/10/30 09:01:35;;;;;;;7.13;1.92;;;12.30;99.90;;;;;;4888196;29;20024;-80
2023/10/30 09:04:01;;;;;;;9.93;2.50;;;12.40;99.90;;;;;;4887944;29;20061;-80
2023/10/30 09:06:27;;;;;;;8.55;2.35;;;12.40;99.90;;;;;;4872778;29;20401;-79
2023/10/30 09:08:53;;;;;;;7.05;1.90;;;12.50;99.90;;;;;;4888065;29;20044;-80
2023/10/30 09:11:20;;;;;;;8.70;2.28;;;12.50;99.90;;;;;;4885877;29;20032;-80
2023/10/30 09:13:45;;;;;;;11.02;2.38;;;12.60;99.90;;;;;;4901911;29;21353;-80
2023/10/30 09:16:11;;;;;;;7.57;2.00;;;12.60;99.90;;;;;;4888091;29;20048;-80
2023/10/30 09:18:37;;;;;;;8.68;1.88;;;12.70;99.90;;;;;;4858540;29;20259;-80
2023/10/30 09:21:04;;;;;;;7.57;1.90;;;12.70;99.90;;;;;;4872834;29;20048;-79
2023/10/30 09:23:30;;;;;;;6.70;2.10;;;12.70;99.90;;;;;;4885626;29;20274;-79
2023/10/30 09:25:55;;;;;;;8.15;2.17;;;12.60;99.90;;;;;;4872917;29;20075;-80
2023/10/30 09:28:21;;;;;;;8.93;1.80;;;12.70;99.90;;;;;;4888045;29;20057;-79
2023/10/30 09:30:47;;;;;;;12.35;2.00;;;12.70;99.90;;;;;;4872164;29;20037;-79
2023/10/30 09:33:13;;;;;;;9.60;2.30;;;12.70;99.90;;;;;;4903932;29;20104;-80
2023/10/30 09:35:39;;;;;;;7.82;2.15;;;12.80;99.90;;;;;;4872813;29;20273;-80
2023/10/30 09:38:05;;;;;;;6.28;1.77;;;12.80;99.90;;;;;;4888094;29;20095;-80
2023/10/30 09:40:31;;;;;;;5.57;1.77;;;12.90;99.90;;;;;;4873799;29;20051;-80
2023/10/30 09:42:58;;;;;;;7.53;1.90;;;12.90;99.90;;;;;;4892671;29;20036;-80
2023/10/30 09:45:26;;;;;;;9.63;2.20;;;12.80;99.90;;;;;;4871045;29;20049;-79
2023/10/30 09:47:53;;;;;;;8.25;1.83;;;12.80;99.90;;;;;;4884142;29;20044;-80
2023/10/30 09:50:20;;;;;;;8.10;2.17;;;12.80;99.90;;;;;;4888370;29;20040;-79
2023/10/30 09:52:51;;;;;;;7.00;1.90;;;12.90;99.90;;;;;;4871551;29;20048;-80
2023/10/30 09:55:18;;;;;;;6.95;1.98;;;12.90;99.90;;;;;;4901676;29;20044;-80
2023/10/30 09:57:47;;;;;;;7.45;1.80;;;13.00;99.90;;;;;;4871289;29;20072;-80
2023/10/30 10:00:14;;;;;;;8.68;1.90;;;13.10;99.90;;;;;;4885896;29;20047;-80
2023/10/30 10:02:41;;;;;;;9.52;1.98;;;13.10;99.90;;;;;;4867885;29;20032;-79
2023/10/30 10:05:08;;;;;;;6.20;1.58;;;13.20;99.90;;;;;;4902827;29;20409;-79
2023/10/30 10:07:35;;;;;;;7.07;1.65;;;13.30;99.90;;;;;;4871219;29;20096;-80
2023/10/30 10:10:02;;;;;;;6.45;1.90;;;13.30;99.90;;;;;;4902385;29;20039;-79
2023/10/30 10:12:33;;;;;;;12.73;2.08;;;13.30;99.90;;;;;;4899228;29;20308;-80
2023/10/30 10:15:08;;;;;;;9.43;2.15;;;13.40;99.90;;;;;;4886191;29;20405;-80
2023/10/30 10:17:45;;;;;;;7.35;2.00;;;13.50;99.90;;;;;;4904248;29;20039;-79
2023/10/30 10:20:11;;;;;;;5.35;1.60;;;13.50;99.90;;;;;;4886674;29;20053;-80
2023/10/30 10:22:38;;;;;;;8.40;2.10;;;13.60;99.90;;;;;;4886878;29;20031;-80
2023/10/30 10:25:10;;;;;;;5.45;1.52;;;13.60;99.90;;;;;;4871611;29;20100;-80
2023/10/30 10:27:40;;;;;;;7.32;1.73;;;13.70;99.90;;;;;;4871971;29;20038;-80
2023/10/30 10:30:07;;;;;;;8.50;2.17;;;13.70;99.90;;;;;;4887547;29;20048;-80
2023/10/30 10:32:33;;;;;;;6.35;1.92;;;13.70;99.90;;;;;;4901491;29;20179;-80
2023/10/30 10:35:05;;;;;;;8.48;1.77;;;13.60;99.90;;;;;;4854263;29;20067;-80
2023/10/30 10:37:32;;;;;;;9.43;2.30;;;13.50;99.90;;;;;;4871788;29;20034;-80
2023/10/30 10:39:59;;;;;;;7.18;1.65;;;13.40;99.90;;;;;;4886862;29;20076;-80
2023/10/30 10:42:26;;;;;;;8.75;2.05;;;13.30;99.90;;;;;;4901812;29;20053;-80
2023/10/30 10:44:53;;;;;;;8.18;1.80;;;13.30;99.90;;;;;;4884163;29;20036;-80
2023/10/30 10:47:20;;;;;;;8.73;2.10;;;13.40;99.90;;;;;;4900986;29;20145;-80
2023/10/30 10:49:46;;;;;;;5.50;1.70;;;13.50;99.90;;;;;;4871308;29;20274;-79
2023/10/30 10:52:14;;;;;;;8.15;2.00;;;13.50;99.90;;;;;;4886566;29;20040;-80
2023/10/30 10:55:04;;;;;;;6.88;1.90;;;13.50;99.90;;;;;;4885778;29;20040;-79
2023/10/30 10:57:54;;;;;;;7.03;1.92;;;13.50;99.90;;;;;;4899137;29;20032;-80
2023/10/30 11:00:21;;;;;;;8.98;1.80;;;13.50;99.90;;;;;;4885860;29;20048;-80
2023/10/30 11:02:50;;;;;;;6.80;1.60;;;13.60;99.90;;;;;;4855898;29;20068;-80
2023/10/30 11:05:16;;;;;;;6.22;1.70;;;13.60;99.90;;;;;;4885129;29;21343;-80
2023/10/30 11:07:50;;;;;;;6.65;1.60;;;13.70;99.90;;;;;;4884765;29;20047;-80
2023/10/30 11:10:29;;;;;;;6.53;1.95;;;13.80;99.90;;;;;;4887211;29;20092;-81
2023/10/30 11:13:20;;;;;;;7.97;1.98;;;14.00;99.90;;;;;;4884673;29;20128;-80
2023/10/30 11:15:56;;;;;;;7.28;1.85;;;14.20;99.90;;;;;;4897663;29;20029;-80
2023/10/30 11:18:24;;;;;;;7.45;1.83;;;14.40;99.90;;;;;;4885283;29;20053;-80
2023/10/30 11:21:08;;;;;;;6.38;2.00;;;14.30;99.90;;;;;;4884192;29;20088;-80
2023/10/30 11:24:00;;;;;;;6.35;1.80;;;14.40;99.90;;;;;;4855137;29;21390;-80
2023/10/30 11:26:41;;;;;;;5.88;1.60;;;14.30;99.90;;;;;;4881603;29;20044;-80
2023/10/30 11:29:12;;;;;;;5.05;1.73;;;14.30;99.90;;;;;;4882647;29;20056;-80
2023/10/30 11:32:01;;;;;;;6.38;1.92;;;14.40;99.90;;;;;;4892893;29;20060;-80
2023/10/30 11:34:37;;;;;;;6.30;1.70;;;14.40;99.90;;;;;;4872361;29;20093;-80
2023/10/30 11:37:12;;;;;;;8.48;2.10;;;14.30;99.90;;;;;;4876723;29;20077;-80
2023/10/30 11:39:40;;;;;;;7.32;2.22;;;14.20;99.90;;;;;;4878858;29;20267;-80
2023/10/30 11:42:24;;;;;;;6.60;1.80;;;14.10;99.90;;;;;;4876140;29;20040;-80
2023/10/30 11:44:51;;;;;;;7.05;1.90;;;14.20;99.90;;;;;;4885145;29;20206;-80
2023/10/30 11:47:23;;;;;;;7.53;1.75;;;14.20;99.90;;;;;;4865498;29;20275;-80
2023/10/30 11:49:50;;;;;;;9.98;2.15;;;14.20;99.90;;;;;;4900771;29;20072;-80
2023/10/30 11:52:19;;;;;;;7.38;1.67;;;14.10;99.90;;;;;;4881996;29;20151;-80
2023/10/30 11:54:46;;;;;;;6.85;2.03;;;14.00;99.90;;;;;;4876600;29;20263;-80
2023/10/30 11:57:11;;;;;;;5.30;1.63;;;14.10;99.90;;;;;;4877733;29;20049;-80
2023/10/30 11:59:38;;;;;;;8.48;2.05;;;14.10;99.90;;;;;;4882521;29;20029;-80
2023/10/30 12:02:07;;;;;;;5.75;1.60;;;14.20;99.90;;;;;;4874017;29;20306;-80
2023/10/30 12:04:33;;;;;;;8.68;2.08;;;14.30;99.90;;;;;;4867930;29;20059;-80
2023/10/30 12:07:00;;;;;;;9.07;2.13;;;14.30;99.90;;;;;;4881852;29;20048;-80
2023/10/30 12:09:26;;;;;;;7.88;1.92;;;14.30;99.90;;;;;;4868945;29;20290;-80
2023/10/30 12:11:52;;;;;;;7.00;1.60;;;14.30;99.90;;;;;;4858721;29;20047;-80
2023/10/30 12:14:21;;;;;;;6.47;1.70;;;14.20;99.90;;;;;;4863188;29;20077;-80
2023/10/30 12:16:48;;;;;;;5.10;1.67;;;14.10;99.90;;;;;;4858309;29;20056;-80
2023/10/30 12:19:22;;;;;;;7.82;2.00;;;14.00;99.90;;;;;;4875330;29;20025;-80
2023/10/30 12:21:48;;;;;;;6.20;1.70;;;13.90;99.90;;;;;;4879920;29;20321;-80
2023/10/30 12:24:22;;;;;;;7.80;1.80;;;13.90;99.90;;;;;;4880775;29;20198;-80
2023/10/30 12:26:48;;;;;;;8.60;1.90;;;13.80;99.90;;;;;;4881673;29;20032;-80
2023/10/30 12:29:22;;;;;;;6.72;1.67;;;13.80;99.90;;;;;;4880177;29;20046;-80
2023/10/30 12:32:06;;;;;;;7.18;1.75;;;13.80;99.90;;;;;;4882572;29;20049;-80
2023/10/30 12:34:36;;;;;;;5.53;1.48;;;13.80;99.90;;;;;;4849548;29;20064;-80
2023/10/30 12:37:17;;;;;;;7.00;1.90;;;13.80;99.90;;;;;;4869521;29;20290;-81
2023/10/30 12:40:07;;;;;;;6.28;1.77;;;13.90;99.90;;;;;;4862262;29;20056;-80
2023/10/30 12:42:38;;;;;;;8.98;1.90;;;13.90;99.90;;;;;;4884479;29;20049;-80
2023/10/30 12:45:18;;;;;;;7.50;1.77;;;13.90;99.90;;;;;;4873412;29;20100;-80
2023/10/30 12:47:45;;;;;;;6.95;1.65;;;14.00;99.90;;;;;;4870196;29;20040;-80
2023/10/30 12:50:13;;;;;;;8.70;2.03;;;13.90;99.90;;;;;;4868595;29;20039;-80